sensor_id;sensor_type;location;lat;lon;timestamp;pressure;altitude;pressure_sealevel;temperature;humidity
56402;BME280;42299;35.160;26.100;2023-05-20T00:00:53;101036.03;;;17.60;100.00
56402;BME280;42299;35.160;26.100;2023-05-20T00:02:15;101030.72;;;17.60;100.00
56402;BME280;42299;35.160;26.100;2023-05-20T00:03:37;101032.50;;;17.60;100.00
56402;BME280;42299;35.160;26.100;2023-05-20T00:04:58;101035.16;;;17.60;100.00
56402;BME280;42299;35.160;26.100;2023-05-20T00:06:20;101039.63;;;17.59;100.00
56402;BME280;42299;35.160;26.100;2023-05-20T00:07:42;101032.53;;;17.58;100.00
56402;BME280;42299;35.160;26.100;2023-05-20T00:09:04;101036.97;;;17.58;100.00
56402;BME280;42299;35.160;26.100;2023-05-20T00:10:26;101033.44;;;17.56;100.00
56402;BME280;42299;35.160;26.100;2023-05-20T00:11:48;101030.75;;;17.56;100.00
56402;BME280;42299;35.160;26.100;2023-05-20T00:13:11;101028.97;;;17.56;100.00
56402;BME280;42299;35.160;26.100;2023-05-20T00:14:33;101040.53;;;17.57;100.00
56402;BME280;42299;35.160;26.100;2023-05-20T00:15:56;101044.09;;;17.57;100.00
56402;BME280;42299;35.160;26.100;2023-05-20T00:17:17;101045.00;;;17.58;100.00
56402;BME280;42299;35.160;26.100;2023-05-20T00:18:39;101029.84;;;17.58;100.00
56402;BME280;42299;35.160;26.100;2023-05-20T00:20:01;101039.63;;;17.59;100.00
56402;BME280;42299;35.160;26.100;2023-05-20T00:21:25;101032.53;;;17.58;100.00
56402;BME280;42299;35.160;26.100;2023-05-20T00:22:46;101038.75;;;17.57;100.00
56402;BME280;42299;35.160;26.100;2023-05-20T00:24:08;101036.09;;;17.57;100.00
56402;BME280;42299;35.160;26.100;2023-05-20T00:25:31;101029.88;;;17.57;100.00
56402;BME280;42299;35.160;26.100;2023-05-20T00:26:54;101035.22;;;17.57;100.00
56402;BME280;42299;35.160;26.100;2023-05-20T00:28:16;101030.75;;;17.57;100.00
56402;BME280;42299;35.160;26.100;2023-05-20T00:29:41;101036.09;;;17.59;100.00
56402;BME280;42299;35.160;26.100;2023-05-20T00:31:03;101024.53;;;17.55;100.00
56402;BME280;42299;35.160;26.100;2023-05-20T00:32:26;101026.31;;;17.53;100.00
56402;BME280;42299;35.160;26.100;2023-05-20T00:33:47;101024.53;;;17.53;100.00
56402;BME280;42299;35.160;26.100;2023-05-20T00:35:10;101020.97;;;17.53;100.00
56402;BME280;42299;35.160;26.100;2023-05-20T00:36:31;101017.41;;;17.52;100.00
56402;BME280;42299;35.160;26.100;2023-05-20T00:37:54;101020.09;;;17.52;100.00
56402;BME280;42299;35.160;26.100;2023-05-20T00:39:15;101007.66;;;17.51;100.00
56402;BME280;42299;35.160;26.100;2023-05-20T00:40:38;101014.75;;;17.52;100.00
56402;BME280;42299;35.160;26.100;2023-05-20T00:41:59;101010.34;;;17.51;100.00
56402;BME280;42299;35.160;26.100;2023-05-20T00:43:23;101015.69;;;17.51;100.00
56402;BME280;42299;35.160;26.100;2023-05-20T00:44:47;101010.34;;;17.51;100.00
56402;BME280;42299;35.160;26.100;2023-05-20T00:46:10;101025.47;;;17.51;100.00
56402;BME280;42299;35.160;26.100;2023-05-20T00:47:32;101020.13;;;17.48;100.00
56402;BME280;42299;35.160;26.100;2023-05-20T00:48:56;101028.16;;;17.46;100.00
56402;BME280;42299;35.160;26.100;2023-05-20T00:50:18;101021.91;;;17.47;100.00
56402;BME280;42299;35.160;26.100;2023-05-20T00:51:41;101027.25;;;17.49;100.00
56402;BME280;42299;35.160;26.100;2023-05-20T00:53:04;101021.91;;;17.49;100.00
56402;BME280;42299;35.160;26.100;2023-05-20T00:54:27;101018.38;;;17.47;100.00
56402;BME280;42299;35.160;26.100;2023-05-20T00:55:50;101015.69;;;17.47;100.00
56402;BME280;42299;35.160;26.100;2023-05-20T00:57:12;101008.56;;;17.47;100.00
56402;BME280;42299;35.160;26.100;2023-05-20T00:58:34;101011.25;;;17.47;100.00
56402;BME280;42299;35.160;26.100;2023-05-20T01:00:00;101009.47;;;17.46;100.00
56402;BME280;42299;35.160;26.100;2023-05-20T01:01:23;101000.56;;;17.46;100.00
56402;BME280;42299;35.160;26.100;2023-05-20T01:02:46;101005.06;;;17.45;100.00
56402;BME280;42299;35.160;26.100;2023-05-20T01:04:08;101003.28;;;17.43;100.00
56402;BME280;42299;35.160;26.100;2023-05-20T01:05:30;101007.75;;;17.41;100.00
56402;BME280;42299;35.160;26.100;2023-05-20T01:06:53;101007.75;;;17.39;100.00
56402;BME280;42299;35.160;26.100;2023-05-20T01:08:15;101003.34;;;17.38;100.00
56402;BME280;42299;35.160;26.100;2023-05-20T01:09:38;100999.78;;;17.36;100.00
56402;BME280;42299;35.160;26.100;2023-05-20T01:11:05;100998.91;;;17.36;100.00
56402;BME280;42299;35.160;26.100;2023-05-20T01:12:33;100996.22;;;17.34;100.00
56402;BME280;42299;35.160;26.100;2023-05-20T01:14:00;101006.91;;;17.34;100.00
56402;BME280;42299;35.160;26.100;2023-05-20T01:15:26;101006.91;;;17.34;100.00
56402;BME280;42299;35.160;26.100;2023-05-20T01:16:50;101010.47;;;17.36;100.00
56402;BME280;42299;35.160;26.100;2023-05-20T01:18:15;101014.00;;;17.38;100.00
56402;BME280;42299;35.160;26.100;2023-05-20T01:19:40;101008.63;;;17.40;100.00
56402;BME280;42299;35.160;26.100;2023-05-20T01:21:05;101006.84;;;17.40;100.00
56402;BME280;42299;35.160;26.100;2023-05-20T01:22:31;101002.44;;;17.38;100.00
56402;BME280;42299;35.160;26.100;2023-05-20T01:23:53;101002.44;;;17.36;100.00
56402;BME280;42299;35.160;26.100;2023-05-20T01:25:15;100998.00;;;17.35;100.00
56402;BME280;42299;35.160;26.100;2023-05-20T01:26:40;100998.91;;;17.34;100.00
56402;BME280;42299;35.160;26.100;2023-05-20T01:28:01;100998.00;;;17.34;100.00
56402;BME280;42299;35.160;26.100;2023-05-20T01:29:24;100990.91;;;17.33;100.00
56402;BME280;42299;35.160;26.100;2023-05-20T01:30:50;100982.91;;;17.33;100.00
56402;BME280;42299;35.160;26.100;2023-05-20T01:32:18;100987.34;;;17.35;100.00
56402;BME280;42299;35.160;26.100;2023-05-20T01:33:41;100984.66;;;17.35;100.00
56402;BME280;42299;35.160;26.100;2023-05-20T01:35:05;100977.53;;;17.37;100.00
56402;BME280;42299;35.160;26.100;2023-05-20T01:36:28;100977.53;;;17.37;100.00
56402;BME280;42299;35.160;26.100;2023-05-20T01:37:54;100979.31;;;17.38;100.00
56402;BME280;42299;35.160;26.100;2023-05-20T01:39:17;100982.00;;;17.35;100.00
56402;BME280;42299;35.160;26.100;2023-05-20T01:40:41;100979.31;;;17.35;100.00
56402;BME280;42299;35.160;26.100;2023-05-20T01:42:06;100968.66;;;17.34;100.00
56402;BME280;42299;35.160;26.100;2023-05-20T01:43:29;100967.75;;;17.36;100.00
56402;BME280;42299;35.160;26.100;2023-05-20T01:44:52;100958.88;;;17.36;100.00
56402;BME280;42299;35.160;26.100;2023-05-20T01:46:15;100957.97;;;17.37;100.00
56402;BME280;42299;35.160;26.100;2023-05-20T01:47:36;100961.53;;;17.37;100.00
56402;BME280;42299;35.160;26.100;2023-05-20T01:48:59;100958.84;;;17.37;100.00
56402;BME280;42299;35.160;26.100;2023-05-20T01:50:20;100967.72;;;17.39;100.00
56402;BME280;42299;35.160;26.100;2023-05-20T01:51:43;100965.94;;;17.40;100.00
56402;BME280;42299;35.160;26.100;2023-05-20T01:53:05;100974.81;;;17.40;100.00
56402;BME280;42299;35.160;26.100;2023-05-20T01:54:29;100973.97;;;17.38;100.00
56402;BME280;42299;35.160;26.100;2023-05-20T01:55:50;100958.84;;;17.37;100.00
56402;BME280;42299;35.160;26.100;2023-05-20T01:57:13;100957.97;;;17.35;100.00
56402;BME280;42299;35.160;26.100;2023-05-20T01:58:36;100954.47;;;17.32;100.00
56402;BME280;42299;35.160;26.100;2023-05-20T01:59:57;100949.13;;;17.29;100.00
56402;BME280;42299;35.160;26.100;2023-05-20T02:01:20;100957.16;;;17.27;100.00
56402;BME280;42299;35.160;26.100;2023-05-20T02:02:41;100958.97;;;17.25;100.00
56402;BME280;42299;35.160;26.100;2023-05-20T02:04:06;100958.09;;;17.23;100.00
56402;BME280;42299;35.160;26.100;2023-05-20T02:05:27;100957.19;;;17.24;100.00
56402;BME280;42299;35.160;26.100;2023-05-20T02:06:50;100951.84;;;17.24;100.00
56402;BME280;42299;35.160;26.100;2023-05-20T02:08:13;100952.75;;;17.23;100.00
56402;BME280;42299;35.160;26.100;2023-05-20T02:09:35;100943.88;;;17.23;100.00
56402;BME280;42299;35.160;26.100;2023-05-20T02:10:57;100954.53;;;17.23;100.00
56402;BME280;42299;35.160;26.100;2023-05-20T02:12:20;100941.19;;;17.21;100.00
56402;BME280;42299;35.160;26.100;2023-05-20T02:13:42;100939.41;;;17.20;100.00
56402;BME280;42299;35.160;26.100;2023-05-20T02:15:06;100936.78;;;17.19;100.00
56402;BME280;42299;35.160;26.100;2023-05-20T02:16:29;100943.91;;;17.18;100.00
56402;BME280;42299;35.160;26.100;2023-05-20T02:17:51;100941.25;;;17.18;100.00
56402;BME280;42299;35.160;26.100;2023-05-20T02:19:14;100941.25;;;17.17;100.00
56402;BME280;42299;35.160;26.100;2023-05-20T02:20:43;100949.25;;;17.15;100.00
56402;BME280;42299;35.160;26.100;2023-05-20T02:22:05;100943.06;;;17.13;100.00
56402;BME280;42299;35.160;26.100;2023-05-20T02:23:29;100942.19;;;17.11;100.00
56402;BME280;42299;35.160;26.100;2023-05-20T02:24:52;100941.31;;;17.10;100.00
56402;BME280;42299;35.160;26.100;2023-05-20T02:26:15;100943.97;;;17.12;100.00
56402;BME280;42299;35.160;26.100;2023-05-20T02:27:36;100943.06;;;17.13;100.00
56402;BME280;42299;35.160;26.100;2023-05-20T02:28:59;100949.25;;;17.15;100.00
56402;BME280;42299;35.160;26.100;2023-05-20T02:30:20;100950.16;;;17.14;100.00
56402;BME280;42299;35.160;26.100;2023-05-20T02:31:43;100950.16;;;17.14;100.00
56402;BME280;42299;35.160;26.100;2023-05-20T02:33:06;100945.69;;;17.14;100.00
56402;BME280;42299;35.160;26.100;2023-05-20T02:34:29;100943.03;;;17.16;100.00
56402;BME280;42299;35.160;26.100;2023-05-20T02:35:51;100948.34;;;17.18;100.00
56402;BME280;42299;35.160;26.100;2023-05-20T02:37:13;100949.25;;;17.17;100.00
56402;BME280;42299;35.160;26.100;2023-05-20T02:38:37;100956.38;;;17.16;100.00
56402;BME280;42299;35.160;26.100;2023-05-20T02:39:58;100951.03;;;17.16;100.00
56402;BME280;42299;35.160;26.100;2023-05-20T02:41:21;100954.59;;;17.18;100.00
56402;BME280;42299;35.160;26.100;2023-05-20T02:42:45;100955.47;;;17.19;100.00
56402;BME280;42299;35.160;26.100;2023-05-20T02:44:06;100952.81;;;17.17;100.00
56402;BME280;42299;35.160;26.100;2023-05-20T02:45:29;100943.91;;;17.15;100.00
56402;BME280;42299;35.160;26.100;2023-05-20T02:46:51;100943.94;;;17.13;100.00
56402;BME280;42299;35.160;26.100;2023-05-20T02:48:12;100950.19;;;17.11;100.00
56402;BME280;42299;35.160;26.100;2023-05-20T02:49:36;100948.41;;;17.10;100.00
56402;BME280;42299;35.160;26.100;2023-05-20T02:50:57;100942.19;;;17.09;100.00
56402;BME280;42299;35.160;26.100;2023-05-20T02:52:20;100945.75;;;17.08;100.00
56402;BME280;42299;35.160;26.100;2023-05-20T02:53:43;100941.31;;;17.07;100.00
56402;BME280;42299;35.160;26.100;2023-05-20T02:55:07;100939.56;;;17.05;100.00
56402;BME280;42299;35.160;26.100;2023-05-20T02:56:29;100944.03;;;17.03;100.00
56402;BME280;42299;35.160;26.100;2023-05-20T02:57:52;100944.91;;;17.02;100.00
56402;BME280;42299;35.160;26.100;2023-05-20T02:59:14;100944.03;;;17.03;100.00
56402;BME280;42299;35.160;26.100;2023-05-20T03:00:36;100948.47;;;17.04;100.00
56402;BME280;42299;35.160;26.100;2023-05-20T03:02:01;100952.03;;;17.04;100.00
56402;BME280;42299;35.160;26.100;2023-05-20T03:03:23;100944.03;;;17.04;100.00
56402;BME280;42299;35.160;26.100;2023-05-20T03:04:46;100949.34;;;17.04;100.00
56402;BME280;42299;35.160;26.100;2023-05-20T03:06:08;100944.91;;;17.03;100.00
56402;BME280;42299;35.160;26.100;2023-05-20T03:07:32;100953.81;;;17.05;100.00
56402;BME280;42299;35.160;26.100;2023-05-20T03:08:55;100955.59;;;17.05;100.00
56402;BME280;42299;35.160;26.100;2023-05-20T03:10:18;100955.59;;;17.05;100.00
56402;BME280;42299;35.160;26.100;2023-05-20T03:11:40;100955.59;;;17.05;100.00
56402;BME280;42299;35.160;26.100;2023-05-20T03:13:05;100948.47;;;17.05;100.00
56402;BME280;42299;35.160;26.100;2023-05-20T03:14:31;100958.25;;;17.06;100.00
56402;BME280;42299;35.160;26.100;2023-05-20T03:15:52;100958.25;;;17.06;100.00
56402;BME280;42299;35.160;26.100;2023-05-20T03:17:15;100961.81;;;17.05;100.00
56402;BME280;42299;35.160;26.100;2023-05-20T03:18:37;100968.94;;;17.02;100.00
56402;BME280;42299;35.160;26.100;2023-05-20T03:20:00;100971.63;;;16.96;100.00
56402;BME280;42299;35.160;26.100;2023-05-20T03:21:22;100974.34;;;16.93;100.00
56402;BME280;42299;35.160;26.100;2023-05-20T03:22:45;100977.91;;;16.92;100.00
56402;BME280;42299;35.160;26.100;2023-05-20T03:24:07;100970.78;;;16.91;100.00
56402;BME280;42299;35.160;26.100;2023-05-20T03:25:30;100986.78;;;16.92;100.00
56402;BME280;42299;35.160;26.100;2023-05-20T03:26:52;100990.34;;;16.93;100.00
56402;BME280;42299;35.160;26.100;2023-05-20T03:28:14;100989.41;;;16.94;100.00
56402;BME280;42299;35.160;26.100;2023-05-20T03:29:36;100987.66;;;16.94;100.00
56402;BME280;42299;35.160;26.100;2023-05-20T03:30:58;100987.63;;;16.96;100.00
56402;BME280;42299;35.160;26.100;2023-05-20T03:32:23;100985.84;;;16.98;100.00
56402;BME280;42299;35.160;26.100;2023-05-20T03:33:45;100992.03;;;17.01;100.00
56402;BME280;42299;35.160;26.100;2023-05-20T03:35:07;100981.38;;;17.04;100.00
56402;BME280;42299;35.160;26.100;2023-05-20T03:36:30;100981.31;;;17.07;100.00
56402;BME280;42299;35.160;26.100;2023-05-20T03:37:53;100972.41;;;17.13;100.00
56402;BME280;42299;35.160;26.100;2023-05-20T03:39:18;100968.81;;;17.19;100.00
56402;BME280;42299;35.160;26.100;2023-05-20T03:40:41;100968.75;;;17.25;100.00
56402;BME280;42299;35.160;26.100;2023-05-20T03:42:04;100963.38;;;17.31;100.00
56402;BME280;42299;35.160;26.100;2023-05-20T03:43:26;100964.22;;;17.34;100.00
56402;BME280;42299;35.160;26.100;2023-05-20T03:44:49;100956.16;;;17.40;100.00
56402;BME280;42299;35.160;26.100;2023-05-20T03:46:10;100961.41;;;17.48;100.00
56402;BME280;42299;35.160;26.100;2023-05-20T03:47:33;100964.03;;;17.56;100.00
56402;BME280;42299;35.160;26.100;2023-05-20T03:48:54;100960.41;;;17.63;100.00
56402;BME280;42299;35.160;26.100;2023-05-20T03:50:16;100970.13;;;17.71;100.00
56402;BME280;42299;35.160;26.100;2023-05-20T03:51:39;100962.00;;;17.79;100.00
56402;BME280;42299;35.160;26.100;2023-05-20T03:53:05;100958.44;;;17.83;100.00
56402;BME280;42299;35.160;26.100;2023-05-20T03:54:33;100957.47;;;17.90;100.00
56402;BME280;42299;35.160;26.100;2023-05-20T03:55:57;100970.75;;;17.95;100.00
56402;BME280;42299;35.160;26.100;2023-05-20T03:57:19;100962.66;;;18.04;100.00
56402;BME280;42299;35.160;26.100;2023-05-20T03:58:41;100964.34;;;18.11;100.00
56402;BME280;42299;35.160;26.100;2023-05-20T04:00:05;100958.03;;;18.18;100.00
56402;BME280;42299;35.160;26.100;2023-05-20T04:01:37;100953.44;;;18.26;100.00
56402;BME280;42299;35.160;26.100;2023-05-20T04:02:59;100955.13;;;18.35;100.00
56402;BME280;42299;35.160;26.100;2023-05-20T04:04:21;100955.94;;;18.41;100.00
56402;BME280;42299;35.160;26.100;2023-05-20T04:05:44;100943.38;;;18.48;100.00
56402;BME280;42299;35.160;26.100;2023-05-20T04:07:12;100950.41;;;18.53;100.00
56402;BME280;42299;35.160;26.100;2023-05-20T04:08:34;100945.91;;;18.58;100.00
56402;BME280;42299;35.160;26.100;2023-05-20T04:09:59;100951.13;;;18.67;100.00
56402;BME280;42299;35.160;26.100;2023-05-20T04:11:20;100946.59;;;18.74;100.00
56402;BME280;42299;35.160;26.100;2023-05-20T04:12:42;100951.81;;;18.83;100.00
56402;BME280;42299;35.160;26.100;2023-05-20T04:14:05;100959.69;;;18.91;100.00
56402;BME280;42299;35.160;26.100;2023-05-20T04:15:28;100966.69;;;19.01;100.00
56402;BME280;42299;35.160;26.100;2023-05-20T04:16:51;100965.59;;;19.11;100.00
56402;BME280;42299;35.160;26.100;2023-05-20T04:18:14;100962.81;;;19.19;100.00
56402;BME280;42299;35.160;26.100;2023-05-20T04:19:37;100967.06;;;19.30;100.00
56402;BME280;42299;35.160;26.100;2023-05-20T04:20:59;100961.59;;;19.38;100.00
56402;BME280;42299;35.160;26.100;2023-05-20T04:22:22;100948.06;;;19.48;100.00
56402;BME280;42299;35.160;26.100;2023-05-20T04:23:44;100958.63;;;19.56;100.00
56402;BME280;42299;35.160;26.100;2023-05-20T04:25:08;100954.00;;;19.64;100.00
56402;BME280;42299;35.160;26.100;2023-05-20T04:26:29;100966.38;;;19.71;100.00
56402;BME280;42299;35.160;26.100;2023-05-20T04:27:52;100963.56;;;19.79;100.00
56402;BME280;42299;35.160;26.100;2023-05-20T04:29:14;100967.88;;;19.87;100.00
56402;BME280;42299;35.160;26.100;2023-05-20T04:30:36;100977.50;;;19.96;100.00
56402;BME280;42299;35.160;26.100;2023-05-20T04:31:59;100965.72;;;20.06;100.00
56402;BME280;42299;35.160;26.100;2023-05-20T04:33:21;100959.31;;;20.13;100.00
56402;BME280;42299;35.160;26.100;2023-05-20T04:34:43;100961.75;;;20.24;100.00
56402;BME280;42299;35.160;26.100;2023-05-20T04:36:09;100972.31;;;20.35;100.00
56402;BME280;42299;35.160;26.100;2023-05-20T04:37:35;100962.25;;;20.44;100.00
56402;BME280;42299;35.160;26.100;2023-05-20T04:38:59;100966.53;;;20.53;100.00
56402;BME280;42299;35.160;26.100;2023-05-20T04:40:23;100964.50;;;20.64;100.00
56402;BME280;42299;35.160;26.100;2023-05-20T04:41:47;100967.88;;;20.74;100.00
56402;BME280;42299;35.160;26.100;2023-05-20T04:43:10;100971.22;;;20.83;100.00
56402;BME280;42299;35.160;26.100;2023-05-20T04:44:31;100970.94;;;20.94;100.00
56402;BME280;42299;35.160;26.100;2023-05-20T04:45:54;100968.03;;;21.04;100.00
56402;BME280;42299;35.160;26.100;2023-05-20T04:47:17;100968.75;;;21.11;100.00
56402;BME280;42299;35.160;26.100;2023-05-20T04:48:38;100972.22;;;21.18;100.00
56402;BME280;42299;35.160;26.100;2023-05-20T04:50:01;100964.88;;;21.24;100.00
56402;BME280;42299;35.160;26.100;2023-05-20T04:51:24;100961.13;;;21.31;100.00
56402;BME280;42299;35.160;26.100;2023-05-20T04:52:47;100965.34;;;21.40;100.00
56402;BME280;42299;35.160;26.100;2023-05-20T04:54:10;100962.53;;;21.46;100.00
56402;BME280;42299;35.160;26.100;2023-05-20T04:55:33;100972.16;;;21.55;100.00
56402;BME280;42299;35.160;26.100;2023-05-20T04:56:57;100965.63;;;21.65;100.00
56402;BME280;42299;35.160;26.100;2023-05-20T04:58:19;100965.34;;;21.74;100.00
56402;BME280;42299;35.160;26.100;2023-05-20T04:59:44;100961.59;;;21.81;100.00
56402;BME280;42299;35.160;26.100;2023-05-20T05:01:06;100967.72;;;21.86;100.00
56402;BME280;42299;35.160;26.100;2023-05-20T05:02:27;100966.69;;;21.92;100.00
56402;BME280;42299;35.160;26.100;2023-05-20T05:03:50;100971.06;;;21.94;100.00
56402;BME280;42299;35.160;26.100;2023-05-20T05:05:11;100966.59;;;21.95;100.00
56402;BME280;42299;35.160;26.100;2023-05-20T05:06:34;100965.69;;;21.94;100.00
56402;BME280;42299;35.160;26.100;2023-05-20T05:07:56;100953.13;;;21.96;100.00
56402;BME280;42299;35.160;26.100;2023-05-20T05:09:19;100955.69;;;22.01;100.00
56402;BME280;42299;35.160;26.100;2023-05-20T05:10:44;100948.28;;;22.09;100.00
56402;BME280;42299;35.160;26.100;2023-05-20T05:12:06;100942.78;;;22.13;100.00
56402;BME280;42299;35.160;26.100;2023-05-20T05:13:29;100941.66;;;22.20;100.00
56402;BME280;42299;35.160;26.100;2023-05-20T05:14:51;100946.81;;;22.28;100.00
56402;BME280;42299;35.160;26.100;2023-05-20T05:16:13;100928.63;;;22.38;100.00
56402;BME280;42299;35.160;26.100;2023-05-20T05:17:36;100931.00;;;22.47;100.00
56402;BME280;42299;35.160;26.100;2023-05-20T05:18:58;100936.13;;;22.56;100.00
56402;BME280;42299;35.160;26.100;2023-05-20T05:20:23;100939.53;;;22.61;98.68
56402;BME280;42299;35.160;26.100;2023-05-20T05:21:47;100947.34;;;22.70;98.94
56402;BME280;42299;35.160;26.100;2023-05-20T05:23:09;100946.13;;;22.80;98.17
56402;BME280;42299;35.160;26.100;2023-05-20T05:24:30;100946.78;;;22.88;96.24
56402;BME280;42299;35.160;26.100;2023-05-20T05:25:56;100952.91;;;22.93;94.66
56402;BME280;42299;35.160;26.100;2023-05-20T05:27:18;100956.31;;;22.98;93.72
56402;BME280;42299;35.160;26.100;2023-05-20T05:28:41;100946.34;;;23.02;93.62
56402;BME280;42299;35.160;26.100;2023-05-20T05:30:05;100938.81;;;23.12;94.17
56402;BME280;42299;35.160;26.100;2023-05-20T05:31:27;100948.47;;;23.19;94.03
56402;BME280;42299;35.160;26.100;2023-05-20T05:32:50;100932.88;;;23.28;93.59
56402;BME280;42299;35.160;26.100;2023-05-20T05:34:12;100936.97;;;23.40;93.65
56402;BME280;42299;35.160;26.100;2023-05-20T05:35:35;100925.03;;;23.49;91.07
56402;BME280;42299;35.160;26.100;2023-05-20T05:36:56;100940.09;;;23.54;90.02
56402;BME280;42299;35.160;26.100;2023-05-20T05:38:19;100941.88;;;23.55;86.24
56402;BME280;42299;35.160;26.100;2023-05-20T05:39:40;100953.41;;;23.59;86.65
56402;BME280;42299;35.160;26.100;2023-05-20T05:41:04;100941.53;;;23.64;85.10
56402;BME280;42299;35.160;26.100;2023-05-20T05:42:28;100933.16;;;23.72;83.55
56402;BME280;42299;35.160;26.100;2023-05-20T05:43:49;100931.19;;;23.77;82.22
56402;BME280;42299;35.160;26.100;2023-05-20T05:45:12;100932.63;;;23.87;82.02
56402;BME280;42299;35.160;26.100;2023-05-20T05:46:35;100935.94;;;23.95;80.13
56402;BME280;42299;35.160;26.100;2023-05-20T05:47:56;100933.00;;;24.01;77.89
56402;BME280;42299;35.160;26.100;2023-05-20T05:49:19;100939.97;;;24.07;78.87
56402;BME280;42299;35.160;26.100;2023-05-20T05:50:43;100940.44;;;24.19;78.43
56402;BME280;42299;35.160;26.100;2023-05-20T05:52:08;100944.38;;;24.34;76.28
56402;BME280;42299;35.160;26.100;2023-05-20T05:53:31;100947.59;;;24.44;75.57
56402;BME280;42299;35.160;26.100;2023-05-20T05:54:52;100951.38;;;24.61;75.26
56402;BME280;42299;35.160;26.100;2023-05-20T05:56:17;100943.63;;;24.76;74.42
56402;BME280;42299;35.160;26.100;2023-05-20T05:57:39;100959.00;;;24.97;73.02
56402;BME280;42299;35.160;26.100;2023-05-20T05:59:03;100953.72;;;25.16;71.07
56402;BME280;42299;35.160;26.100;2023-05-20T06:00:25;100942.88;;;25.37;70.13
56402;BME280;42299;35.160;26.100;2023-05-20T06:01:48;100944.78;;;25.56;67.78
56402;BME280;42299;35.160;26.100;2023-05-20T06:03:10;100937.00;;;25.70;65.76
56402;BME280;42299;35.160;26.100;2023-05-20T06:04:32;100935.56;;;25.82;64.03
56402;BME280;42299;35.160;26.100;2023-05-20T06:05:54;100927.88;;;25.93;62.43
56402;BME280;42299;35.160;26.100;2023-05-20T06:07:16;100929.41;;;25.98;60.76
56402;BME280;42299;35.160;26.100;2023-05-20T06:08:38;100925.38;;;26.07;59.09
56402;BME280;42299;35.160;26.100;2023-05-20T06:10:01;100913.19;;;26.17;58.46
56402;BME280;42299;35.160;26.100;2023-05-20T06:11:25;100921.78;;;26.27;57.36
56402;BME280;42299;35.160;26.100;2023-05-20T06:12:47;100926.19;;;26.29;56.60
56402;BME280;42299;35.160;26.100;2023-05-20T06:14:09;100927.72;;;26.35;56.18
56402;BME280;42299;35.160;26.100;2023-05-20T06:15:31;100923.91;;;26.39;55.19
56402;BME280;42299;35.160;26.100;2023-05-20T06:16:53;100921.72;;;26.47;55.56
56402;BME280;42299;35.160;26.100;2023-05-20T06:18:15;100927.72;;;26.53;55.54
56402;BME280;42299;35.160;26.100;2023-05-20T06:19:38;100920.19;;;26.60;54.96
56402;BME280;42299;35.160;26.100;2023-05-20T06:21:01;100925.78;;;26.57;53.57
56402;BME280;42299;35.160;26.100;2023-05-20T06:22:24;100922.13;;;26.58;52.78
56402;BME280;42299;35.160;26.100;2023-05-20T06:23:47;100921.66;;;26.67;51.53
56402;BME280;42299;35.160;26.100;2023-05-20T06:25:10;100925.69;;;26.77;50.63
56402;BME280;42299;35.160;26.100;2023-05-20T06:26:34;100917.31;;;26.82;50.42
56402;BME280;42299;35.160;26.100;2023-05-20T06:27:56;100913.44;;;26.87;50.88
56402;BME280;42299;35.160;26.100;2023-05-20T06:29:18;100913.09;;;26.95;49.69
56402;BME280;42299;35.160;26.100;2023-05-20T06:30:41;100911.09;;;26.98;49.13
56402;BME280;42299;35.160;26.100;2023-05-20T06:32:04;100907.59;;;26.96;48.30
56402;BME280;42299;35.160;26.100;2023-05-20T06:33:27;100921.78;;;27.02;48.58
56402;BME280;42299;35.160;26.100;2023-05-20T06:34:54;100914.31;;;27.07;48.21
56402;BME280;42299;35.160;26.100;2023-05-20T06:36:16;100930.25;;;27.13;48.54
56402;BME280;42299;35.160;26.100;2023-05-20T06:37:40;100923.31;;;27.24;48.60
56402;BME280;42299;35.160;26.100;2023-05-20T06:39:03;100921.84;;;27.36;48.70
56402;BME280;42299;35.160;26.100;2023-05-20T06:40:31;100923.44;;;27.40;47.99
56402;BME280;42299;35.160;26.100;2023-05-20T06:41:55;100908.59;;;27.47;47.80
56402;BME280;42299;35.160;26.100;2023-05-20T06:43:23;100923.28;;;27.43;47.21
56402;BME280;42299;35.160;26.100;2023-05-20T06:45:07;100910.13;;;27.35;47.24
56402;BME280;42299;35.160;26.100;2023-05-20T06:46:46;100923.75;;;27.34;47.34
56402;BME280;42299;35.160;26.100;2023-05-20T06:48:09;100917.38;;;27.35;47.77
56402;BME280;42299;35.160;26.100;2023-05-20T06:49:32;100922.81;;;27.35;47.48
56402;BME280;42299;35.160;26.100;2023-05-20T06:50:55;100917.69;;;27.29;47.16
56402;BME280;42299;35.160;26.100;2023-05-20T06:52:16;100915.19;;;27.24;47.63
56402;BME280;42299;35.160;26.100;2023-05-20T06:53:39;100911.72;;;27.22;47.59
56402;BME280;42299;35.160;26.100;2023-05-20T06:55:01;100921.59;;;27.23;47.88
56402;BME280;42299;35.160;26.100;2023-05-20T06:56:23;100927.72;;;27.27;48.06
56402;BME280;42299;35.160;26.100;2023-05-20T06:57:47;100928.38;;;27.32;47.76
56402;BME280;42299;35.160;26.100;2023-05-20T06:59:11;100929.31;;;27.31;47.86
56402;BME280;42299;35.160;26.100;2023-05-20T07:00:34;100933.78;;;27.32;48.03
56402;BME280;42299;35.160;26.100;2023-05-20T07:01:56;100929.03;;;27.37;48.00
56402;BME280;42299;35.160;26.100;2023-05-20T07:03:18;100928.06;;;27.38;47.65
56402;BME280;42299;35.160;26.100;2023-05-20T07:04:40;100918.75;;;27.44;47.33